sensor_id;sensor_type;location;lat;lon;timestamp;temperature;humidity
59618;DHT22;45437;51.458;-2.568;2022-07-30T14:50:00;22.70;70.10
59618;DHT22;45437;51.458;-2.568;2022-07-30T14:51:01;22.80;69.50
59618;DHT22;45437;51.458;-2.568;2022-07-30T14:52:03;22.80;69.40
59618;DHT22;45437;51.458;-2.568;2022-07-30T14:53:04;22.80;69.20
59618;DHT22;45437;51.458;-2.568;2022-07-30T14:54:05;22.80;69.10
59618;DHT22;45437;51.458;-2.568;2022-07-30T14:55:07;22.80;69.30
59618;DHT22;45437;51.458;-2.568;2022-07-30T14:56:08;22.80;69.10
59618;DHT22;45437;51.458;-2.568;2022-07-30T14:57:09;22.80;69.10
59618;DHT22;45437;51.458;-2.568;2022-07-30T14:58:09;22.90;68.80
59618;DHT22;45437;51.458;-2.568;2022-07-30T14:59:10;22.80;68.80
59618;DHT22;45437;51.458;-2.568;2022-07-30T15:00:12;22.80;68.50
59618;DHT22;45437;51.458;-2.568;2022-07-30T15:01:13;22.90;68.70
59618;DHT22;45437;51.458;-2.568;2022-07-30T15:02:13;22.90;68.50
59618;DHT22;45437;51.458;-2.568;2022-07-30T15:03:14;22.80;68.30
59618;DHT22;45437;51.458;-2.568;2022-07-30T15:04:15;22.80;68.10
59618;DHT22;45437;51.458;-2.568;2022-07-30T15:05:17;22.80;68.20
59618;DHT22;45437;51.458;-2.568;2022-07-30T15:06:18;22.80;68.30
59618;DHT22;45437;51.458;-2.568;2022-07-30T15:07:18;22.80;68.20
59618;DHT22;45437;51.458;-2.568;2022-07-30T15:08:19;22.80;68.20
59618;DHT22;45437;51.458;-2.568;2022-07-30T15:09:20;22.80;68.30
59618;DHT22;45437;51.458;-2.568;2022-07-30T15:10:21;22.80;68.10
59618;DHT22;45437;51.458;-2.568;2022-07-30T15:11:22;22.80;68.20
59618;DHT22;45437;51.458;-2.568;2022-07-30T15:12:23;22.80;68.10
59618;DHT22;45437;51.458;-2.568;2022-07-30T15:13:24;22.80;68.10
59618;DHT22;45437;51.458;-2.568;2022-07-30T15:14:25;22.80;68.00
59618;DHT22;45437;51.458;-2.568;2022-07-30T15:15:26;22.80;67.80
59618;DHT22;45437;51.458;-2.568;2022-07-30T15:16:27;22.80;67.70
59618;DHT22;45437;51.458;-2.568;2022-07-30T15:17:28;22.80;68.00
59618;DHT22;45437;51.458;-2.568;2022-07-30T15:18:28;22.80;67.60
59618;DHT22;45437;51.458;-2.568;2022-07-30T15:19:29;22.80;67.90
59618;DHT22;45437;51.458;-2.568;2022-07-30T15:20:30;22.80;67.90
59618;DHT22;45437;51.458;-2.568;2022-07-30T15:21:31;22.80;67.90
59618;DHT22;45437;51.458;-2.568;2022-07-30T15:22:32;22.80;67.70
59618;DHT22;45437;51.458;-2.568;2022-07-30T15:23:33;22.80;67.50
59618;DHT22;45437;51.458;-2.568;2022-07-30T15:24:34;22.80;68.50
59618;DHT22;45437;51.458;-2.568;2022-07-30T15:25:34;22.80;67.70
59618;DHT22;45437;51.458;-2.568;2022-07-30T15:26:35;22.80;67.90
59618;DHT22;45437;51.458;-2.568;2022-07-30T15:27:36;22.80;67.70
59618;DHT22;45437;51.458;-2.568;2022-07-30T15:28:37;22.80;67.90
59618;DHT22;45437;51.458;-2.568;2022-07-30T15:29:38;22.80;68.00
59618;DHT22;45437;51.458;-2.568;2022-07-30T15:30:39;22.80;68.00
59618;DHT22;45437;51.458;-2.568;2022-07-30T15:31:40;22.80;68.10
59618;DHT22;45437;51.458;-2.568;2022-07-30T15:32:41;22.80;68.00
59618;DHT22;45437;51.458;-2.568;2022-07-30T15:33:42;22.80;68.20
59618;DHT22;45437;51.458;-2.568;2022-07-30T15:34:44;22.80;68.20
59618;DHT22;45437;51.458;-2.568;2022-07-30T15:35:45;22.80;68.20
59618;DHT22;45437;51.458;-2.568;2022-07-30T15:36:45;22.80;68.30
59618;DHT22;45437;51.458;-2.568;2022-07-30T15:37:46;22.80;68.20
59618;DHT22;45437;51.458;-2.568;2022-07-30T15:38:47;22.80;68.20
59618;DHT22;45437;51.458;-2.568;2022-07-30T15:39:48;22.90;68.40
59618;DHT22;45437;51.458;-2.568;2022-07-30T15:40:49;22.90;68.30
59618;DHT22;45437;51.458;-2.568;2022-07-30T15:41:49;22.90;68.60
59618;DHT22;45437;51.458;-2.568;2022-07-30T15:42:53;22.90;68.60
59618;DHT22;45437;51.458;-2.568;2022-07-30T15:43:54;22.90;68.50
59618;DHT22;45437;51.458;-2.568;2022-07-30T15:44:55;22.90;68.60
59618;DHT22;45437;51.458;-2.568;2022-07-30T15:45:56;22.90;69.00
59618;DHT22;45437;51.458;-2.568;2022-07-30T15:46:58;22.90;68.80
59618;DHT22;45437;51.458;-2.568;2022-07-30T15:47:59;22.90;68.80
59618;DHT22;45437;51.458;-2.568;2022-07-30T15:49:00;22.90;68.70
59618;DHT22;45437;51.458;-2.568;2022-07-30T15:50:02;22.90;68.60
59618;DHT22;45437;51.458;-2.568;2022-07-30T15:51:04;22.90;68.70
59618;DHT22;45437;51.458;-2.568;2022-07-30T15:52:06;22.90;69.10
59618;DHT22;45437;51.458;-2.568;2022-07-30T15:53:10;22.90;69.10
59618;DHT22;45437;51.458;-2.568;2022-07-30T15:54:11;22.90;68.80
59618;DHT22;45437;51.458;-2.568;2022-07-30T15:55:12;22.90;69.00
59618;DHT22;45437;51.458;-2.568;2022-07-30T15:56:13;22.90;68.90
59618;DHT22;45437;51.458;-2.568;2022-07-30T15:57:15;22.90;68.80
59618;DHT22;45437;51.458;-2.568;2022-07-30T15:58:16;22.90;69.20
59618;DHT22;45437;51.458;-2.568;2022-07-30T15:59:17;22.90;69.20
59618;DHT22;45437;51.458;-2.568;2022-07-30T16:00:18;23.00;69.10
59618;DHT22;45437;51.458;-2.568;2022-07-30T16:01:18;23.00;69.40
59618;DHT22;45437;51.458;-2.568;2022-07-30T16:02:19;23.00;69.30
59618;DHT22;45437;51.458;-2.568;2022-07-30T16:03:20;23.00;69.40
59618;DHT22;45437;51.458;-2.568;2022-07-30T16:04:21;23.00;69.40
59618;DHT22;45437;51.458;-2.568;2022-07-30T16:05:22;23.00;69.20
59618;DHT22;45437;51.458;-2.568;2022-07-30T16:06:23;22.90;69.10
59618;DHT22;45437;51.458;-2.568;2022-07-30T16:07:24;22.90;69.30
59618;DHT22;45437;51.458;-2.568;2022-07-30T16:08:25;23.00;69.40
59618;DHT22;45437;51.458;-2.568;2022-07-30T16:09:26;22.90;69.20
59618;DHT22;45437;51.458;-2.568;2022-07-30T16:10:27;23.00;69.70
59618;DHT22;45437;51.458;-2.568;2022-07-30T16:11:28;23.00;69.70
59618;DHT22;45437;51.458;-2.568;2022-07-30T16:12:29;22.90;69.60
59618;DHT22;45437;51.458;-2.568;2022-07-30T16:13:30;23.00;69.70
59618;DHT22;45437;51.458;-2.568;2022-07-30T16:14:31;23.00;70.20
59618;DHT22;45437;51.458;-2.568;2022-07-30T16:15:32;23.00;70.00
59618;DHT22;45437;51.458;-2.568;2022-07-30T16:16:33;23.00;69.70
59618;DHT22;45437;51.458;-2.568;2022-07-30T16:17:34;23.00;69.50
59618;DHT22;45437;51.458;-2.568;2022-07-30T16:18:35;23.00;69.60
59618;DHT22;45437;51.458;-2.568;2022-07-30T16:19:36;23.00;69.30
59618;DHT22;45437;51.458;-2.568;2022-07-30T16:20:37;22.90;69.00
59618;DHT22;45437;51.458;-2.568;2022-07-30T16:21:38;22.90;69.40
59618;DHT22;45437;51.458;-2.568;2022-07-30T16:22:38;22.90;69.50
59618;DHT22;45437;51.458;-2.568;2022-07-30T16:23:39;23.00;69.40
59618;DHT22;45437;51.458;-2.568;2022-07-30T16:24:43;22.90;69.20
59618;DHT22;45437;51.458;-2.568;2022-07-30T16:25:44;22.90;69.40
59618;DHT22;45437;51.458;-2.568;2022-07-30T16:26:45;22.90;69.50
59618;DHT22;45437;51.458;-2.568;2022-07-30T16:27:45;22.90;69.20
59618;DHT22;45437;51.458;-2.568;2022-07-30T16:28:46;22.90;69.60
59618;DHT22;45437;51.458;-2.568;2022-07-30T16:29:47;22.90;69.30
59618;DHT22;45437;51.458;-2.568;2022-07-30T16:30:48;22.90;69.50
59618;DHT22;45437;51.458;-2.568;2022-07-30T16:31:49;22.90;69.70
59618;DHT22;45437;51.458;-2.568;2022-07-30T16:32:50;22.90;69.40
59618;DHT22;45437;51.458;-2.568;2022-07-30T16:33:51;22.90;69.70
59618;DHT22;45437;51.458;-2.568;2022-07-30T16:34:52;22.90;69.30
59618;DHT22;45437;51.458;-2.568;2022-07-30T16:35:53;22.90;69.40
59618;DHT22;45437;51.458;-2.568;2022-07-30T16:36:53;22.90;69.80
59618;DHT22;45437;51.458;-2.568;2022-07-30T16:37:54;22.90;70.40
59618;DHT22;45437;51.458;-2.568;2022-07-30T16:38:57;22.80;70.10
59618;DHT22;45437;51.458;-2.568;2022-07-30T16:39:58;22.80;71.30
59618;DHT22;45437;51.458;-2.568;2022-07-30T16:40:59;22.80;70.70
59618;DHT22;45437;51.458;-2.568;2022-07-30T16:42:00;22.80;70.10
59618;DHT22;45437;51.458;-2.568;2022-07-30T16:43:01;22.80;70.10
59618;DHT22;45437;51.458;-2.568;2022-07-30T16:44:02;22.80;70.10
59618;DHT22;45437;51.458;-2.568;2022-07-30T16:45:03;22.80;70.40
59618;DHT22;45437;51.458;-2.568;2022-07-30T16:46:04;22.80;70.40
59618;DHT22;45437;51.458;-2.568;2022-07-30T16:47:05;22.80;70.40
59618;DHT22;45437;51.458;-2.568;2022-07-30T16:48:06;22.80;70.60
59618;DHT22;45437;51.458;-2.568;2022-07-30T16:49:06;22.80;70.60
59618;DHT22;45437;51.458;-2.568;2022-07-30T16:50:08;22.80;70.90
59618;DHT22;45437;51.458;-2.568;2022-07-30T16:51:09;22.80;70.80
59618;DHT22;45437;51.458;-2.568;2022-07-30T16:52:10;22.80;70.70
59618;DHT22;45437;51.458;-2.568;2022-07-30T16:53:10;22.80;70.60
59618;DHT22;45437;51.458;-2.568;2022-07-30T16:54:11;22.80;70.40
59618;DHT22;45437;51.458;-2.568;2022-07-30T16:55:12;22.70;70.60
59618;DHT22;45437;51.458;-2.568;2022-07-30T16:56:15;22.80;70.70
59618;DHT22;45437;51.458;-2.568;2022-07-30T16:57:15;22.80;70.80
59618;DHT22;45437;51.458;-2.568;2022-07-30T16:58:16;22.80;70.80
59618;DHT22;45437;51.458;-2.568;2022-07-30T16:59:21;22.80;70.80
59618;DHT22;45437;51.458;-2.568;2022-07-30T17:00:22;22.80;70.80
59618;DHT22;45437;51.458;-2.568;2022-07-30T17:01:23;22.80;71.10
59618;DHT22;45437;51.458;-2.568;2022-07-30T17:02:24;22.80;70.90
59618;DHT22;45437;51.458;-2.568;2022-07-30T17:03:25;22.80;70.80
59618;DHT22;45437;51.458;-2.568;2022-07-30T17:04:26;22.80;70.70
59618;DHT22;45437;51.458;-2.568;2022-07-30T17:05:27;22.70;70.60
59618;DHT22;45437;51.458;-2.568;2022-07-30T17:06:28;22.80;70.60
59618;DHT22;45437;51.458;-2.568;2022-07-30T17:07:29;22.70;70.90
59618;DHT22;45437;51.458;-2.568;2022-07-30T17:08:30;22.70;70.90
59618;DHT22;45437;51.458;-2.568;2022-07-30T17:09:31;22.80;70.60
59618;DHT22;45437;51.458;-2.568;2022-07-30T17:10:31;22.80;70.40
59618;DHT22;45437;51.458;-2.568;2022-07-30T17:11:32;22.70;70.60
59618;DHT22;45437;51.458;-2.568;2022-07-30T17:12:33;22.70;70.60
59618;DHT22;45437;51.458;-2.568;2022-07-30T17:13:34;22.70;70.70
59618;DHT22;45437;51.458;-2.568;2022-07-30T17:14:35;22.70;70.70
59618;DHT22;45437;51.458;-2.568;2022-07-30T17:15:36;22.70;70.40
59618;DHT22;45437;51.458;-2.568;2022-07-30T17:16:37;22.70;70.50
59618;DHT22;45437;51.458;-2.568;2022-07-30T17:17:38;22.60;70.80
59618;DHT22;45437;51.458;-2.568;2022-07-30T17:18:39;22.60;70.90
59618;DHT22;45437;51.458;-2.568;2022-07-30T17:19:40;22.60;70.80
59618;DHT22;45437;51.458;-2.568;2022-07-30T17:20:41;22.60;70.80
59618;DHT22;45437;51.458;-2.568;2022-07-30T17:21:42;22.60;71.00
59618;DHT22;45437;51.458;-2.568;2022-07-30T17:22:43;22.60;70.70
59618;DHT22;45437;51.458;-2.568;2022-07-30T17:23:44;22.60;71.00
59618;DHT22;45437;51.458;-2.568;2022-07-30T17:24:45;22.60;71.10
59618;DHT22;45437;51.458;-2.568;2022-07-30T17:25:45;22.60;70.80
59618;DHT22;45437;51.458;-2.568;2022-07-30T17:26:46;22.60;70.90
59618;DHT22;45437;51.458;-2.568;2022-07-30T17:27:47;22.60;70.90
59618;DHT22;45437;51.458;-2.568;2022-07-30T17:28:48;22.60;70.80
59618;DHT22;45437;51.458;-2.568;2022-07-30T17:29:49;22.60;70.90
59618;DHT22;45437;51.458;-2.568;2022-07-30T17:30:53;22.60;71.40
59618;DHT22;45437;51.458;-2.568;2022-07-30T17:31:53;22.60;70.80
59618;DHT22;45437;51.458;-2.568;2022-07-30T17:32:54;22.50;70.70
59618;DHT22;45437;51.458;-2.568;2022-07-30T17:33:55;22.50;70.70
59618;DHT22;45437;51.458;-2.568;2022-07-30T17:34:56;22.50;71.00
59618;DHT22;45437;51.458;-2.568;2022-07-30T17:35:57;22.50;70.80
59618;DHT22;45437;51.458;-2.568;2022-07-30T17:36:57;22.50;71.00
59618;DHT22;45437;51.458;-2.568;2022-07-30T17:37:58;22.50;70.70
59618;DHT22;45437;51.458;-2.568;2022-07-30T17:38:59;22.50;71.00
59618;DHT22;45437;51.458;-2.568;2022-07-30T17:40:00;22.60;70.90
59618;DHT22;45437;51.458;-2.568;2022-07-30T17:41:01;22.50;70.80
59618;DHT22;45437;51.458;-2.568;2022-07-30T17:42:02;22.50;70.80
59618;DHT22;45437;51.458;-2.568;2022-07-30T17:43:03;22.60;70.80
59618;DHT22;45437;51.458;-2.568;2022-07-30T17:44:04;22.50;70.60
59618;DHT22;45437;51.458;-2.568;2022-07-30T17:45:07;22.50;70.70
59618;DHT22;45437;51.458;-2.568;2022-07-30T17:46:08;22.50;71.40
59618;DHT22;45437;51.458;-2.568;2022-07-30T17:47:09;22.50;70.70
59618;DHT22;45437;51.458;-2.568;2022-07-30T17:48:10;22.50;70.80
59618;DHT22;45437;51.458;-2.568;2022-07-30T17:49:11;22.50;70.90
59618;DHT22;45437;51.458;-2.568;2022-07-30T17:50:12;22.50;71.10
59618;DHT22;45437;51.458;-2.568;2022-07-30T17:51:14;22.50;71.20
59618;DHT22;45437;51.458;-2.568;2022-07-30T17:52:14;22.50;70.90
59618;DHT22;45437;51.458;-2.568;2022-07-30T17:53:15;22.50;70.80
59618;DHT22;45437;51.458;-2.568;2022-07-30T17:54:16;22.50;70.90
59618;DHT22;45437;51.458;-2.568;2022-07-30T17:55:17;22.50;70.90
59618;DHT22;45437;51.458;-2.568;2022-07-30T17:56:17;22.50;71.00
59618;DHT22;45437;51.458;-2.568;2022-07-30T17:57:18;22.50;71.00
59618;DHT22;45437;51.458;-2.568;2022-07-30T17:58:20;22.40;71.00
59618;DHT22;45437;51.458;-2.568;2022-07-30T17:59:22;22.50;71.00
59618;DHT22;45437;51.458;-2.568;2022-07-30T18:00:23;22.50;71.00
59618;DHT22;45437;51.458;-2.568;2022-07-30T18:01:23;22.40;71.00
59618;DHT22;45437;51.458;-2.568;2022-07-30T18:02:24;22.40;71.10
59618;DHT22;45437;51.458;-2.568;2022-07-30T18:03:25;22.40;71.00
59618;DHT22;45437;51.458;-2.568;2022-07-30T18:04:26;22.40;71.10
59618;DHT22;45437;51.458;-2.568;2022-07-30T18:05:27;22.40;71.10
59618;DHT22;45437;51.458;-2.568;2022-07-30T18:06:28;22.40;71.00
59618;DHT22;45437;51.458;-2.568;2022-07-30T18:07:28;22.40;71.00
59618;DHT22;45437;51.458;-2.568;2022-07-30T18:08:29;22.40;71.00
59618;DHT22;45437;51.458;-2.568;2022-07-30T18:09:32;22.40;71.20
59618;DHT22;45437;51.458;-2.568;2022-07-30T18:10:33;22.40;71.20
59618;DHT22;45437;51.458;-2.568;2022-07-30T18:11:33;22.40;71.10
59618;DHT22;45437;51.458;-2.568;2022-07-30T18:12:34;22.40;70.80
59618;DHT22;45437;51.458;-2.568;2022-07-30T18:13:35;22.40;71.10
59618;DHT22;45437;51.458;-2.568;2022-07-30T18:14:36;22.40;71.00
59618;DHT22;45437;51.458;-2.568;2022-07-30T18:15:37;22.40;71.10
59618;DHT22;45437;51.458;-2.568;2022-07-30T18:16:38;22.40;71.00
59618;DHT22;45437;51.458;-2.568;2022-07-30T18:17:38;22.40;71.00
59618;DHT22;45437;51.458;-2.568;2022-07-30T18:18:39;22.40;71.30
59618;DHT22;45437;51.458;-2.568;2022-07-30T18:19:40;22.40;71.00
59618;DHT22;45437;51.458;-2.568;2022-07-30T18:20:41;22.40;71.10
59618;DHT22;45437;51.458;-2.568;2022-07-30T18:21:42;22.40;71.00
59618;DHT22;45437;51.458;-2.568;2022-07-30T18:22:43;22.40;70.90
59618;DHT22;45437;51.458;-2.568;2022-07-30T18:23:43;22.30;70.90
59618;DHT22;45437;51.458;-2.568;2022-07-30T18:24:44;22.30;71.00
59618;DHT22;45437;51.458;-2.568;2022-07-30T18:25:48;22.40;71.20
59618;DHT22;45437;51.458;-2.568;2022-07-30T18:26:49;22.40;71.00
59618;DHT22;45437;51.458;-2.568;2022-07-30T18:27:50;22.30;70.90
59618;DHT22;45437;51.458;-2.568;2022-07-30T18:28:51;22.30;71.20
59618;DHT22;45437;51.458;-2.568;2022-07-30T18:29:51;22.30;71.20
59618;DHT22;45437;51.458;-2.568;2022-07-30T18:30:52;22.30;71.40
59618;DHT22;45437;51.458;-2.568;2022-07-30T18:31:54;22.30;71.60
59618;DHT22;45437;51.458;-2.568;2022-07-30T18:32:55;22.30;71.40
59618;DHT22;45437;51.458;-2.568;2022-07-30T18:33:56;22.30;71.30
59618;DHT22;45437;51.458;-2.568;2022-07-30T18:34:56;22.30;71.30
59618;DHT22;45437;51.458;-2.568;2022-07-30T18:35:57;22.30;71.30
59618;DHT22;45437;51.458;-2.568;2022-07-30T18:36:58;22.30;71.30
59618;DHT22;45437;51.458;-2.568;2022-07-30T18:37:59;22.20;71.10
59618;DHT22;45437;51.458;-2.568;2022-07-30T18:39:00;22.20;71.30
59618;DHT22;45437;51.458;-2.568;2022-07-30T18:40:01;22.20;71.50
59618;DHT22;45437;51.458;-2.568;2022-07-30T18:41:02;22.20;71.40
59618;DHT22;45437;51.458;-2.568;2022-07-30T18:42:03;22.30;71.40
59618;DHT22;45437;51.458;-2.568;2022-07-30T18:43:04;22.30;71.40
59618;DHT22;45437;51.458;-2.568;2022-07-30T18:44:05;22.30;71.30
59618;DHT22;45437;51.458;-2.568;2022-07-30T18:45:07;22.20;71.20
59618;DHT22;45437;51.458;-2.568;2022-07-30T18:46:08;22.30;71.30
59618;DHT22;45437;51.458;-2.568;2022-07-30T18:47:09;22.30;71.20
59618;DHT22;45437;51.458;-2.568;2022-07-30T18:48:09;22.20;71.20
59618;DHT22;45437;51.458;-2.568;2022-07-30T18:49:10;22.20;71.20
59618;DHT22;45437;51.458;-2.568;2022-07-30T18:50:13;22.20;71.40
59618;DHT22;45437;51.458;-2.568;2022-07-30T18:51:14;22.20;71.20
59618;DHT22;45437;51.458;-2.568;2022-07-30T18:52:15;22.20;71.20
59618;DHT22;45437;51.458;-2.568;2022-07-30T18:53:16;22.20;71.20
59618;DHT22;45437;51.458;-2.568;2022-07-30T18:54:17;22.20;71.10
59618;DHT22;45437;51.458;-2.568;2022-07-30T18:55:18;22.20;71.40
59618;DHT22;45437;51.458;-2.568;2022-07-30T18:56:20;22.20;71.30
59618;DHT22;45437;51.458;-2.568;2022-07-30T18:57:21;22.20;71.20
59618;DHT22;45437;51.458;-2.568;2022-07-30T18:58:22;22.20;71.10
59618;DHT22;45437;51.458;-2.568;2022-07-30T18:59:23;22.20;71.30
59618;DHT22;45437;51.458;-2.568;2022-07-30T19:00:23;22.30;71.20
59618;DHT22;45437;51.458;-2.568;2022-07-30T19:01:25;22.20;71.20
59618;DHT22;45437;51.458;-2.568;2022-07-30T19:02:26;22.20;71.30
59618;DHT22;45437;51.458;-2.568;2022-07-30T19:03:27;22.20;71.70
59618;DHT22;45437;51.458;-2.568;2022-07-30T19:04:27;22.20;71.40
59618;DHT22;45437;51.458;-2.568;2022-07-30T19:05:28;22.20;71.40
59618;DHT22;45437;51.458;-2.568;2022-07-30T19:06:29;22.20;71.60
59618;DHT22;45437;51.458;-2.568;2022-07-30T19:07:30;22.20;71.80
59618;DHT22;45437;51.458;-2.568;2022-07-30T19:08:31;22.20;71.60
59618;DHT22;45437;51.458;-2.568;2022-07-30T19:09:32;22.20;71.60
59618;DHT22;45437;51.458;-2.568;2022-07-30T19:10:33;22.20;71.50
59618;DHT22;45437;51.458;-2.568;2022-07-30T19:11:34;22.20;71.60
59618;DHT22;45437;51.458;-2.568;2022-07-30T19:12:35;22.20;72.00
59618;DHT22;45437;51.458;-2.568;2022-07-30T19:13:35;22.30;72.20
59618;DHT22;45437;51.458;-2.568;2022-07-30T19:14:39;22.30;71.80
59618;DHT22;45437;51.458;-2.568;2022-07-30T19:15:40;22.20;71.80
59618;DHT22;45437;51.458;-2.568;2022-07-30T19:16:42;22.30;71.90
59618;DHT22;45437;51.458;-2.568;2022-07-30T19:17:43;22.20;71.80
59618;DHT22;45437;51.458;-2.568;2022-07-30T19:18:44;22.20;71.70
59618;DHT22;45437;51.458;-2.568;2022-07-30T19:19:45;22.20;71.60
59618;DHT22;45437;51.458;-2.568;2022-07-30T19:20:46;22.20;71.60
59618;DHT22;45437;51.458;-2.568;2022-07-30T19:21:46;22.20;71.60
59618;DHT22;45437;51.458;-2.568;2022-07-30T19:22:48;22.20;71.80
59618;DHT22;45437;51.458;-2.568;2022-07-30T19:23:49;22.10;71.90
59618;DHT22;45437;51.458;-2.568;2022-07-30T19:24:49;22.20;72.10
59618;DHT22;45437;51.458;-2.568;2022-07-30T19:25:50;22.10;72.00
59618;DHT22;45437;51.458;-2.568;2022-07-30T19:26:51;22.20;72.20
59618;DHT22;45437;51.458;-2.568;2022-07-30T19:27:52;22.10;72.30
59618;DHT22;45437;51.458;-2.568;2022-07-30T19:28:53;22.10;72.30
59618;DHT22;45437;51.458;-2.568;2022-07-30T19:29:53;22.20;72.40
59618;DHT22;45437;51.458;-2.568;2022-07-30T19:30:54;22.10;72.50
59618;DHT22;45437;51.458;-2.568;2022-07-30T19:31:55;22.10;72.30
59618;DHT22;45437;51.458;-2.568;2022-07-30T19:33:06;22.10;72.40
59618;DHT22;45437;51.458;-2.568;2022-07-30T19:34:07;22.10;72.60
59618;DHT22;45437;51.458;-2.568;2022-07-30T19:35:10;22.10;72.70
59618;DHT22;45437;51.458;-2.568;2022-07-30T19:36:11;22.20;72.80
59618;DHT22;45437;51.458;-2.568;2022-07-30T19:37:14;22.10;72.80
59618;DHT22;45437;51.458;-2.568;2022-07-30T19:38:15;22.10;72.70
59618;DHT22;45437;51.458;-2.568;2022-07-30T19:39:16;22.10;72.70
59618;DHT22;45437;51.458;-2.568;2022-07-30T19:40:17;22.10;73.00
59618;DHT22;45437;51.458;-2.568;2022-07-30T19:41:18;22.10;72.80
59618;DHT22;45437;51.458;-2.568;2022-07-30T19:42:19;22.10;72.70
59618;DHT22;45437;51.458;-2.568;2022-07-30T19:43:20;22.10;72.90
59618;DHT22;45437;51.458;-2.568;2022-07-30T19:44:22;22.10;72.80
59618;DHT22;45437;51.458;-2.568;2022-07-30T19:45:26;22.10;73.00
59618;DHT22;45437;51.458;-2.568;2022-07-30T19:46:30;22.10;73.10
59618;DHT22;45437;51.458;-2.568;2022-07-30T19:47:31;22.10;73.20
59618;DHT22;45437;51.458;-2.568;2022-07-30T19:48:32;22.10;73.50
59618;DHT22;45437;51.458;-2.568;2022-07-30T19:49:34;22.10;73.60
59618;DHT22;45437;51.458;-2.568;2022-07-30T19:50:39;22.10;73.90
59618;DHT22;45437;51.458;-2.568;2022-07-30T19:51:41;22.10;74.10
59618;DHT22;45437;51.458;-2.568;2022-07-30T19:52:42;22.10;74.10
59618;DHT22;45437;51.458;-2.568;2022-07-30T19:53:43;22.10;74.30
59618;DHT22;45437;51.458;-2.568;2022-07-30T19:54:44;22.00;74.60
59618;DHT22;45437;51.458;-2.568;2022-07-30T19:55:45;22.00;74.70
59618;DHT22;45437;51.458;-2.568;2022-07-30T19:56:46;22.00;74.70
59618;DHT22;45437;51.458;-2.568;2022-07-30T19:57:47;22.00;74.90
59618;DHT22;45437;51.458;-2.568;2022-07-30T19:58:48;22.00;74.80
59618;DHT22;45437;51.458;-2.568;2022-07-30T19:59:48;22.00;74.80
59618;DHT22;45437;51.458;-2.568;2022-07-30T20:00:49;22.00;74.70
59618;DHT22;45437;51.458;-2.568;2022-07-30T20:01:50;22.00;74.60
59618;DHT22;45437;51.458;-2.568;2022-07-30T20:02:51;22.00;74.60
59618;DHT22;45437;51.458;-2.568;2022-07-30T20:03:52;22.00;74.80
59618;DHT22;45437;51.458;-2.568;2022-07-30T20:04:53;22.00;74.80
59618;DHT22;45437;51.458;-2.568;2022-07-30T20:05:54;22.00;75.00
59618;DHT22;45437;51.458;-2.568;2022-07-30T20:06:55;22.00;75.00
59618;DHT22;45437;51.458;-2.568;2022-07-30T20:07:56;22.00;75.00
59618;DHT22;45437;51.458;-2.568;2022-07-30T20:08:57;22.00;75.70
59618;DHT22;45437;51.458;-2.568;2022-07-30T20:09:58;22.00;76.10
59618;DHT22;45437;51.458;-2.568;2022-07-30T20:10:59;22.00;76.20
59618;DHT22;45437;51.458;-2.568;2022-07-30T20:12:00;22.00;76.30
59618;DHT22;45437;51.458;-2.568;2022-07-30T20:13:01;22.00;76.70
59618;DHT22;45437;51.458;-2.568;2022-07-30T20:14:03;22.00;76.90
59618;DHT22;45437;51.458;-2.568;2022-07-30T20:15:05;22.00;77.20
59618;DHT22;45437;51.458;-2.568;2022-07-30T20:16:05;22.00;77.00
59618;DHT22;45437;51.458;-2.568;2022-07-30T20:17:11;22.00;77.50
59618;DHT22;45437;51.458;-2.568;2022-07-30T20:18:12;22.00;77.40
59618;DHT22;45437;51.458;-2.568;2022-07-30T20:19:13;22.00;77.30
59618;DHT22;45437;51.458;-2.568;2022-07-30T20:20:14;22.00;77.40
59618;DHT22;45437;51.458;-2.568;2022-07-30T20:21:15;22.00;77.80
59618;DHT22;45437;51.458;-2.568;2022-07-30T20:22:16;22.00;78.10
59618;DHT22;45437;51.458;-2.568;2022-07-30T20:23:17;22.00;77.90
59618;DHT22;45437;51.458;-2.568;2022-07-30T20:24:18;22.00;78.40
59618;DHT22;45437;51.458;-2.568;2022-07-30T20:25:18;22.00;77.80
59618;DHT22;45437;51.458;-2.568;2022-07-30T20:26:19;22.00;77.70
59618;DHT22;45437;51.458;-2.568;2022-07-30T20:27:20;22.00;77.60
59618;DHT22;45437;51.458;-2.568;2022-07-30T20:28:21;22.00;77.70
59618;DHT22;45437;51.458;-2.568;2022-07-30T20:29:22;22.00;77.60
59618;DHT22;45437;51.458;-2.568;2022-07-30T20:30:23;22.10;77.70
59618;DHT22;45437;51.458;-2.568;2022-07-30T20:31:24;22.00;77.80
59618;DHT22;45437;51.458;-2.568;2022-07-30T20:32:25;22.00;77.80
59618;DHT22;45437;51.458;-2.568;2022-07-30T20:33:26;22.00;77.90
59618;DHT22;45437;51.458;-2.568;2022-07-30T20:34:26;22.00;77.90
59618;DHT22;45437;51.458;-2.568;2022-07-30T20:35:30;22.00;78.10
59618;DHT22;45437;51.458;-2.568;2022-07-30T20:36:31;22.00;78.20
59618;DHT22;45437;51.458;-2.568;2022-07-30T20:37:34;22.00;78.10
59618;DHT22;45437;51.458;-2.568;2022-07-30T20:38:36;22.00;78.20
59618;DHT22;45437;51.458;-2.568;2022-07-30T20:39:37;22.00;78.00
59618;DHT22;45437;51.458;-2.568;2022-07-30T20:40:38;22.00;78.10
59618;DHT22;45437;51.458;-2.568;2022-07-30T20:41:39;22.00;78.20
59618;DHT22;45437;51.458;-2.568;2022-07-30T20:42:40;22.00;78.00
59618;DHT22;45437;51.458;-2.568;2022-07-30T20:43:42;22.00;78.10
59618;DHT22;45437;51.458;-2.568;2022-07-30T20:44:45;22.00;78.20
59618;DHT22;45437;51.458;-2.568;2022-07-30T20:45:46;22.00;78.30
59618;DHT22;45437;51.458;-2.568;2022-07-30T20:46:47;22.00;78.30
59618;DHT22;45437;51.458;-2.568;2022-07-30T20:47:48;22.00;78.10
59618;DHT22;45437;51.458;-2.568;2022-07-30T20:48:51;22.00;78.30
59618;DHT22;45437;51.458;-2.568;2022-07-30T20:49:52;21.90;78.20
59618;DHT22;45437;51.458;-2.568;2022-07-30T20:50:53;22.00;78.50
59618;DHT22;45437;51.458;-2.568;2022-07-30T20:51:54;22.00;78.20
59618;DHT22;45437;51.458;-2.568;2022-07-30T20:52:54;22.00;78.20
59618;DHT22;45437;51.458;-2.568;2022-07-30T20:53:55;21.90;78.10
59618;DHT22;45437;51.458;-2.568;2022-07-30T20:54:56;21.90;78.30
59618;DHT22;45437;51.458;-2.568;2022-07-30T20:55:57;21.90;78.20
59618;DHT22;45437;51.458;-2.568;2022-07-30T20:56:58;21.90;78.10
59618;DHT22;45437;51.458;-2.568;2022-07-30T20:57:59;21.90;78.00
59618;DHT22;45437;51.458;-2.568;2022-07-30T20:58:59;22.00;78.00
59618;DHT22;45437;51.458;-2.568;2022-07-30T21:00:00;22.00;78.00
59618;DHT22;45437;51.458;-2.568;2022-07-30T21:01:01;22.00;78.00
59618;DHT22;45437;51.458;-2.568;2022-07-30T21:02:03;22.00;77.90
59618;DHT22;45437;51.458;-2.568;2022-07-30T21:03:04;22.00;77.90
59618;DHT22;45437;51.458;-2.568;2022-07-30T21:04:04;22.00;77.80
59618;DHT22;45437;51.458;-2.568;2022-07-30T21:05:05;22.00;77.90
59618;DHT22;45437;51.458;-2.568;2022-07-30T21:06:06;22.00;77.80
59618;DHT22;45437;51.458;-2.568;2022-07-30T21:07:07;22.00;77.80
59618;DHT22;45437;51.458;-2.568;2022-07-30T21:08:09;22.00;77.80
59618;DHT22;45437;51.458;-2.568;2022-07-30T21:09:13;22.00;77.80